createdAt,value
2023-06-11T00:00:52.561Z,98467.15
2023-06-11T00:06:22.100Z,98468.58
2023-06-11T00:11:29.567Z,98466.00
2023-06-11T00:16:38.554Z,98461.96
2023-06-11T00:21:46.445Z,98462.46
2023-06-11T00:26:53.878Z,98465.09
2023-06-11T00:32:01.779Z,98461.38
2023-06-11T00:37:10.170Z,98460.85
2023-06-11T00:42:21.111Z,98463.85
2023-06-11T00:47:28.372Z,98463.95
2023-06-11T00:52:35.422Z,98460.08
2023-06-11T00:57:43.065Z,98458.36
2023-06-11T01:02:59.097Z,98458.58
2023-06-11T01:08:09.111Z,98464.08
2023-06-11T01:13:16.896Z,98461.69
2023-06-11T01:18:25.359Z,98467.52
2023-06-11T01:23:42.840Z,98469.53
2023-06-11T01:28:52.879Z,98473.50
2023-06-11T01:34:00.519Z,98472.71
2023-06-11T01:39:07.860Z,98473.30
2023-06-11T01:44:15.298Z,98479.73
2023-06-11T01:49:22.845Z,98482.91
2023-06-11T01:54:30.348Z,98484.20
2023-06-11T01:59:37.806Z,98482.22
2023-06-11T02:04:44.996Z,98481.45
2023-06-11T02:09:52.029Z,98487.88
2023-06-11T02:14:59.375Z,98478.12
2023-06-11T02:20:08.360Z,98485.14
2023-06-11T02:25:15.317Z,98494.86
2023-06-11T02:30:22.734Z,98491.05
2023-06-11T02:35:29.987Z,98489.80
2023-06-11T02:40:37.219Z,98490.39
2023-06-11T02:45:44.514Z,98492.12
2023-06-11T02:50:51.477Z,98495.11
2023-06-11T02:55:58.651Z,98497.04
2023-06-11T03:01:06.000Z,98501.09
2023-06-11T03:06:13.343Z,98499.52
2023-06-11T03:11:20.905Z,98507.40
2023-06-11T03:16:28.148Z,98505.66
2023-06-11T03:21:35.610Z,98507.02
2023-06-11T03:26:42.695Z,98515.56
2023-06-11T03:31:49.837Z,98516.86
2023-06-11T03:36:57.019Z,98522.58
2023-06-11T03:42:04.353Z,98523.89
2023-06-11T03:47:11.572Z,98532.73
2023-06-11T03:52:19.276Z,98538.15
2023-06-11T03:57:26.641Z,98539.02
2023-06-11T04:02:33.998Z,98539.42
2023-06-11T04:07:41.641Z,98535.52
2023-06-11T04:12:49.427Z,98534.66
2023-06-11T04:17:56.571Z,98539.20
2023-06-11T04:23:03.836Z,98541.65
2023-06-11T04:28:11.597Z,98546.05
2023-06-11T04:33:18.859Z,98550.59
2023-06-11T04:38:26.157Z,98552.58
2023-06-11T04:43:34.894Z,98550.34
2023-06-11T04:48:42.813Z,98548.98
2023-06-11T04:53:53.738Z,98550.48
2023-06-11T04:59:01.092Z,98550.86
2023-06-11T05:04:08.494Z,98554.79
2023-06-11T05:09:16.281Z,98559.56
2023-06-11T05:14:23.282Z,98563.56
2023-06-11T05:19:30.432Z,98563.73
2023-06-11T05:24:37.624Z,98575.05
2023-06-11T05:29:46.449Z,98570.49
2023-06-11T05:34:53.823Z,98576.38
2023-06-11T05:40:01.027Z,98582.20
2023-06-11T05:45:09.331Z,98582.06
2023-06-11T05:50:16.697Z,98584.91
2023-06-11T05:55:24.014Z,98590.33
2023-06-11T06:00:31.416Z,98593.21
2023-06-11T06:05:38.667Z,98601.10
2023-06-11T06:10:46.005Z,98606.31
2023-06-11T06:15:54.431Z,98613.52
2023-06-11T06:21:01.768Z,98612.35
2023-06-11T06:26:09.087Z,98611.21
2023-06-11T06:31:16.328Z,98608.23
2023-06-11T06:36:23.629Z,98606.23
2023-06-11T06:41:31.043Z,98607.09
2023-06-11T06:46:38.550Z,98610.29
2023-06-11T06:51:45.752Z,98611.77
2023-06-11T06:56:53.011Z,98608.34
2023-06-11T07:02:00.202Z,98607.43
2023-06-11T07:07:07.782Z,98606.05
2023-06-11T07:12:15.193Z,98601.86
2023-06-11T07:17:24.358Z,98606.92
2023-06-11T07:22:32.536Z,98616.81
2023-06-11T07:27:40.160Z,98620.46
2023-06-11T07:32:47.837Z,98625.17
2023-06-11T07:37:55.485Z,98615.85
2023-06-11T07:43:02.625Z,98612.98
2023-06-11T07:48:09.953Z,98617.46
2023-06-11T07:53:17.018Z,98617.64
2023-06-11T07:58:24.314Z,98618.01
2023-06-11T08:03:32.022Z,98626.86
2023-06-11T08:08:39.592Z,98626.60
2023-06-11T08:13:47.403Z,98619.65
2023-06-11T08:18:54.602Z,98628.38
2023-06-11T08:24:01.960Z,98629.46
2023-06-11T08:29:09.210Z,98622.73
2023-06-11T08:34:16.399Z,98623.79
2023-06-11T08:39:23.720Z,98613.48
2023-06-11T08:44:31.281Z,98610.52
2023-06-11T08:49:41.130Z,98607.34
2023-06-11T08:54:48.406Z,98606.46
2023-06-11T08:59:55.869Z,98606.91
2023-06-11T09:05:03.172Z,98607.79
2023-06-11T09:10:11.722Z,98609.24
2023-06-11T09:15:20.073Z,98606.23
2023-06-11T09:20:27.704Z,98603.35
2023-06-11T09:25:35.475Z,98595.23
2023-06-11T09:30:42.939Z,98594.60
2023-06-11T09:35:50.564Z,98592.75
2023-06-11T09:40:58.552Z,98593.17
2023-06-11T09:46:05.671Z,98590.05
2023-06-11T09:51:12.966Z,98594.62
2023-06-11T09:56:20.221Z,98598.65
2023-06-11T10:01:29.477Z,98599.52
2023-06-11T10:06:38.972Z,98597.56
2023-06-11T10:11:47.373Z,98604.23
2023-06-11T10:16:56.059Z,98602.31
2023-06-11T10:22:04.102Z,98602.93
2023-06-11T10:27:12.202Z,98604.58
2023-06-11T10:32:20.153Z,98595.09
2023-06-11T10:37:37.081Z,98601.64
2023-06-11T10:42:45.119Z,98598.30
2023-06-11T10:47:52.674Z,98600.34
2023-06-11T10:53:00.795Z,98604.02
2023-06-11T10:58:08.734Z,98596.92
2023-06-11T11:03:16.753Z,98595.63
2023-06-11T11:08:25.993Z,98598.70
2023-06-11T11:13:35.241Z,98594.83
2023-06-11T11:18:42.585Z,98591.06
2023-06-11T11:23:50.827Z,98596.05
2023-06-11T11:28:58.397Z,98592.88
2023-06-11T11:34:05.584Z,98580.86
2023-06-11T11:39:16.584Z,98579.33
2023-06-11T11:44:25.788Z,98577.83
2023-06-11T11:49:35.668Z,98580.39
2023-06-11T11:54:46.386Z,98575.61
2023-06-11T11:59:55.609Z,98575.48
2023-06-11T12:05:03.180Z,98573.73
2023-06-11T12:10:11.590Z,98574.07
2023-06-11T12:15:19.203Z,98573.70
2023-06-11T12:20:26.643Z,98569.49
2023-06-11T12:25:34.861Z,98572.68
2023-06-11T12:30:44.042Z,98566.58
2023-06-11T12:35:51.140Z,98569.73
2023-06-11T12:40:58.281Z,98574.55
2023-06-11T12:46:05.585Z,98574.35
2023-06-11T12:51:13.101Z,98575.31
2023-06-11T12:56:20.350Z,98573.08
2023-06-11T13:01:27.715Z,98570.73
2023-06-11T13:06:34.827Z,98564.94
2023-06-11T13:11:42.007Z,98565.22
2023-06-11T13:16:49.097Z,98561.13
2023-06-11T13:21:56.435Z,98566.36
2023-06-11T13:27:03.925Z,98562.70
2023-06-11T13:32:12.231Z,98560.36
2023-06-11T13:37:19.555Z,98560.94
2023-06-11T13:42:27.287Z,98564.00
2023-06-11T13:47:34.366Z,98562.05
2023-06-11T13:52:41.609Z,98557.45
2023-06-11T13:57:48.805Z,98553.94
2023-06-11T14:02:56.192Z,98562.15
2023-06-11T14:08:03.894Z,98569.90
2023-06-11T14:13:10.887Z,98566.58
2023-06-11T14:18:18.957Z,98568.52
2023-06-11T14:23:26.039Z,98560.33
2023-06-11T14:28:33.019Z,98562.27
2023-06-11T14:33:40.225Z,98567.63
2023-06-11T14:38:47.588Z,98561.59
2023-06-11T14:43:54.818Z,98562.98
2023-06-11T14:49:10.888Z,98563.67
2023-06-11T14:54:19.025Z,98567.14
2023-06-11T14:59:26.681Z,98564.07
2023-06-11T15:04:33.924Z,98558.37
2023-06-11T15:09:41.513Z,98550.50
2023-06-11T15:14:48.622Z,98551.37
2023-06-11T15:19:55.874Z,98553.66
2023-06-11T15:25:03.292Z,98549.78
2023-06-11T15:30:11.687Z,98553.66
2023-06-11T15:35:19.565Z,98546.43
2023-06-11T15:40:27.064Z,98552.67
2023-06-11T15:45:34.345Z,98549.83
2023-06-11T15:50:41.838Z,98550.14
2023-06-11T15:55:49.230Z,98548.61
2023-06-11T16:00:56.695Z,98551.25
2023-06-11T16:06:04.172Z,98552.64
2023-06-11T16:11:11.832Z,98551.85
2023-06-11T16:16:19.152Z,98551.73
2023-06-11T16:21:26.355Z,98548.60
2023-06-11T16:26:33.524Z,98544.55
2023-06-11T16:31:43.513Z,98548.20
2023-06-11T16:36:51.602Z,98551.95
2023-06-11T16:41:58.879Z,98556.90
2023-06-11T16:47:06.839Z,98562.01
2023-06-11T16:52:14.182Z,98562.41
2023-06-11T16:57:21.764Z,98562.71
2023-06-11T17:02:29.605Z,98555.01
2023-06-11T17:07:38.494Z,98564.80
2023-06-11T17:12:47.511Z,98565.91
2023-06-11T17:17:55.723Z,98567.83
2023-06-11T17:23:04.081Z,98570.21
2023-06-11T17:28:11.639Z,98571.52
2023-06-11T17:33:19.208Z,98574.16
2023-06-11T17:38:26.737Z,98575.79
2023-06-11T17:43:34.481Z,98574.34
2023-06-11T17:48:41.396Z,98578.80
2023-06-11T17:53:48.411Z,98580.16
2023-06-11T17:58:55.449Z,98581.52
2023-06-11T18:04:02.870Z,98587.12
2023-06-11T18:09:10.402Z,98590.30
2023-06-11T18:14:17.829Z,98596.92
2023-06-11T18:19:24.901Z,98603.35
2023-06-11T18:24:33.941Z,98607.09
2023-06-11T18:29:41.272Z,98613.07
2023-06-11T18:34:49.400Z,98614.77
2023-06-11T18:39:56.864Z,98619.23
2023-06-11T18:45:03.930Z,98625.14
2023-06-11T18:50:12.616Z,98627.53
2023-06-11T18:55:22.636Z,98628.11
2023-06-11T19:00:30.176Z,98633.77
2023-06-11T19:05:37.170Z,98636.56
2023-06-11T19:10:46.573Z,98646.44
2023-06-11T19:15:55.399Z,98646.55
2023-06-11T19:21:02.869Z,98651.48
2023-06-11T19:26:11.244Z,98658.08
2023-06-11T19:31:19.817Z,98656.17
2023-06-11T19:36:27.611Z,98657.00
2023-06-11T19:41:36.211Z,98667.04
2023-06-11T19:46:43.716Z,98677.77
2023-06-11T19:51:51.247Z,98676.10
2023-06-11T19:56:58.371Z,98678.41
2023-06-11T20:02:06.092Z,98682.64
2023-06-11T20:07:13.507Z,98688.06
2023-06-11T20:12:20.673Z,98685.05
2023-06-11T20:17:28.250Z,98688.30
2023-06-11T20:22:35.566Z,98692.19
2023-06-11T20:27:43.980Z,98692.77
2023-06-11T20:32:51.657Z,98689.51
2023-06-11T20:37:59.042Z,98690.30
2023-06-11T20:43:06.900Z,98695.02
2023-06-11T20:48:14.111Z,98701.23
2023-06-11T20:53:33.410Z,98704.52
2023-06-11T20:58:42.329Z,98707.27
2023-06-11T21:03:49.913Z,98710.64
2023-06-11T21:08:57.401Z,98712.96
2023-06-11T21:14:13.459Z,98711.38
2023-06-11T21:19:22.047Z,98704.60
2023-06-11T21:24:29.049Z,98701.45
2023-06-11T21:29:36.228Z,98702.56
2023-06-11T21:34:43.297Z,98705.19
2023-06-11T21:39:50.354Z,98709.80
2023-06-11T21:44:57.459Z,98705.08
2023-06-11T21:50:07.134Z,98708.73
2023-06-11T21:55:14.665Z,98710.89
2023-06-11T22:00:22.109Z,98708.56
2023-06-11T22:05:29.340Z,98709.94
2023-06-11T22:10:36.449Z,98708.16
2023-06-11T22:15:43.426Z,98707.73
2023-06-11T22:20:50.909Z,98704.77
2023-06-11T22:25:58.214Z,98709.00
2023-06-11T22:31:05.591Z,98714.56
2023-06-11T22:36:12.772Z,98708.05
2023-06-11T22:41:19.953Z,98709.66
2023-06-11T22:46:27.141Z,98702.90
2023-06-11T22:51:37.971Z,98706.23
2023-06-11T22:56:45.287Z,98699.55
2023-06-11T23:01:52.826Z,98699.49
2023-06-11T23:07:00.056Z,98700.05
2023-06-11T23:12:08.603Z,98705.31
2023-06-11T23:17:17.430Z,98700.69
2023-06-11T23:22:25.503Z,98702.05
2023-06-11T23:27:35.040Z,98695.63
2023-06-11T23:32:42.975Z,98691.41
2023-06-11T23:37:53.224Z,98688.16
2023-06-11T23:43:19.475Z,98685.61
2023-06-11T23:48:26.864Z,98687.79
2023-06-11T23:53:34.350Z,98682.77
2023-06-11T23:58:41.827Z,98683.41
